createdAt,value
2018-12-05T00:01:00.854Z,100402.00
2018-12-05T00:03:05.028Z,100398.00
2018-12-05T00:05:09.356Z,100387.00
2018-12-05T00:07:13.560Z,100390.00
2018-12-05T00:09:17.555Z,100386.00
2018-12-05T00:11:21.520Z,100389.00
2018-12-05T00:13:25.520Z,100388.00
2018-12-05T00:15:29.814Z,100388.00
2018-12-05T00:17:33.834Z,100384.00
2018-12-05T00:19:37.980Z,100386.00
2018-12-05T00:21:42.020Z,100390.00
2018-12-05T00:23:46.010Z,100391.00
2018-12-05T00:25:49.992Z,100383.00
2018-12-05T00:27:54.019Z,100388.00
2018-12-05T00:29:58.025Z,100381.00
2018-12-05T00:32:02.106Z,100387.00
2018-12-05T00:34:06.330Z,100388.00
2018-12-05T00:36:10.306Z,100381.00
2018-12-05T00:38:14.325Z,100376.00
2018-12-05T00:40:18.337Z,100372.00
2018-12-05T00:42:22.329Z,100373.00
2018-12-05T00:44:26.485Z,100362.00
2018-12-05T00:46:30.474Z,100369.00
2018-12-05T00:48:34.440Z,100365.00
2018-12-05T00:50:38.540Z,100370.00
2018-12-05T00:52:42.585Z,100370.00
2018-12-05T00:54:46.814Z,100375.00
2018-12-05T00:56:50.837Z,100368.00
2018-12-05T00:58:54.965Z,100363.00
2018-12-05T01:00:59.138Z,100364.00
2018-12-05T01:03:03.123Z,100363.00
2018-12-05T01:05:07.942Z,100370.00
2018-12-05T01:07:12.130Z,100369.00
2018-12-05T01:09:16.287Z,100373.00
2018-12-05T01:11:21.159Z,100365.00
2018-12-05T01:13:25.301Z,100363.00
2018-12-05T01:15:29.372Z,100360.00
2018-12-05T01:17:33.611Z,100354.00
2018-12-05T01:19:37.699Z,100354.00
2018-12-05T01:21:41.710Z,100335.00
2018-12-05T01:23:45.724Z,100320.00
2018-12-05T01:25:49.782Z,100322.00
2018-12-05T01:27:53.778Z,100326.00
2018-12-05T01:29:57.843Z,100330.00
2018-12-05T01:32:01.962Z,100337.00
2018-12-05T01:34:06.220Z,100323.00
2018-12-05T01:36:10.253Z,100342.00
2018-12-05T01:38:14.268Z,100323.00
2018-12-05T01:40:18.262Z,100331.00
2018-12-05T01:42:22.621Z,100326.00
2018-12-05T01:44:26.626Z,100338.00
2018-12-05T01:46:31.241Z,100337.00
2018-12-05T01:48:35.290Z,100336.00
2018-12-05T01:50:39.442Z,100341.00
2018-12-05T01:52:43.423Z,100332.00
2018-12-05T01:54:47.413Z,100326.00
2018-12-05T01:56:51.472Z,100322.00
2018-12-05T01:58:55.548Z,100341.00
2018-12-05T02:01:02.333Z,100340.00
2018-12-05T02:03:06.981Z,100340.00
2018-12-05T02:05:12.928Z,100345.00
2018-12-05T02:07:17.687Z,100349.00
2018-12-05T02:09:21.816Z,100348.00
2018-12-05T02:11:25.898Z,100348.00
2018-12-05T02:13:29.994Z,100346.00
2018-12-05T02:15:34.110Z,100354.00
2018-12-05T02:17:38.250Z,100352.00
2018-12-05T02:19:42.249Z,100346.00
2018-12-05T02:21:46.446Z,100358.00
2018-12-05T02:23:50.557Z,100356.00
2018-12-05T02:25:54.680Z,100348.00
2018-12-05T02:27:58.694Z,100344.00
2018-12-05T02:30:02.863Z,100345.00
2018-12-05T02:32:07.134Z,100347.00
2018-12-05T02:34:11.270Z,100345.00
2018-12-05T02:36:15.294Z,100339.00
2018-12-05T02:38:19.451Z,100342.00
2018-12-05T02:40:23.558Z,100341.00
2018-12-05T02:42:27.622Z,100344.00
2018-12-05T02:44:31.745Z,100343.00
2018-12-05T02:46:35.999Z,100343.00
2018-12-05T02:48:40.085Z,100355.00
2018-12-05T02:50:44.266Z,100347.00
2018-12-05T02:52:48.504Z,100337.00
2018-12-05T02:54:52.585Z,100334.00
2018-12-05T02:56:56.626Z,100336.00
2018-12-05T02:59:00.722Z,100344.00
2018-12-05T03:01:08.057Z,100346.00
2018-12-05T03:03:12.065Z,100339.00
2018-12-05T03:05:16.324Z,100331.00
2018-12-05T03:07:20.490Z,100339.00
2018-12-05T03:09:24.554Z,100337.00
2018-12-05T03:11:28.567Z,100337.00
2018-12-05T03:13:32.593Z,100335.00
2018-12-05T03:15:36.567Z,100342.00
2018-12-05T03:17:40.596Z,100334.00
2018-12-05T03:19:44.609Z,100342.00
2018-12-05T03:21:48.663Z,100336.00
2018-12-05T03:23:52.730Z,100335.00
2018-12-05T03:25:56.812Z,100332.00
2018-12-05T03:28:00.946Z,100325.00
2018-12-05T03:30:05.751Z,100338.00
2018-12-05T03:32:09.781Z,100337.00
2018-12-05T03:34:14.613Z,100336.00
2018-12-05T03:36:18.797Z,100330.00
2018-12-05T03:38:22.794Z,100316.00
2018-12-05T03:40:26.817Z,100309.00
2018-12-05T03:42:30.859Z,100312.00
2018-12-05T03:44:35.058Z,100301.00
2018-12-05T03:46:39.131Z,100310.00
2018-12-05T03:48:43.374Z,100315.00
2018-12-05T03:50:47.485Z,100312.00
2018-12-05T03:52:51.637Z,100304.00
2018-12-05T03:54:55.699Z,100320.00
2018-12-05T03:56:59.918Z,100317.00
2018-12-05T03:59:04.331Z,100317.00
2018-12-05T04:01:08.629Z,100312.00
2018-12-05T04:03:12.657Z,100316.00
2018-12-05T04:05:16.847Z,100315.00
2018-12-05T04:07:20.919Z,100324.00
2018-12-05T04:09:25.177Z,100325.00
2018-12-05T04:11:29.214Z,100320.00
2018-12-05T04:13:33.230Z,100326.00
2018-12-05T04:15:37.857Z,100320.00
2018-12-05T04:17:42.791Z,100319.00
2018-12-05T04:19:46.821Z,100321.00
2018-12-05T04:21:50.856Z,100321.00
2018-12-05T04:23:54.918Z,100324.00
2018-12-05T04:25:58.906Z,100313.00
2018-12-05T04:28:03.054Z,100311.00
2018-12-05T04:30:07.297Z,100318.00
2018-12-05T04:32:11.378Z,100314.00
2018-12-05T04:34:15.368Z,100306.00
2018-12-05T04:36:19.382Z,100312.00
2018-12-05T04:38:23.391Z,100317.00
2018-12-05T04:40:27.697Z,100323.00
2018-12-05T04:42:32.008Z,100318.00
2018-12-05T04:44:36.043Z,100315.00
2018-12-05T04:46:40.224Z,100316.00
2018-12-05T04:48:44.384Z,100313.00
2018-12-05T04:50:48.462Z,100319.00
2018-12-05T04:52:52.493Z,100315.00
2018-12-05T04:54:56.550Z,100315.00
2018-12-05T04:57:00.568Z,100324.00
2018-12-05T04:59:04.786Z,100321.00
2018-12-05T05:01:08.908Z,100323.00
2018-12-05T05:03:12.930Z,100324.00
2018-12-05T05:05:17.148Z,100320.00
2018-12-05T05:07:21.242Z,100316.00
2018-12-05T05:09:25.233Z,100319.00
2018-12-05T05:11:29.260Z,100312.00
2018-12-05T05:13:33.359Z,100315.00
2018-12-05T05:15:37.865Z,100311.00
2018-12-05T05:17:42.076Z,100316.00
2018-12-05T05:19:46.322Z,100315.00
2018-12-05T05:21:50.366Z,100304.00
2018-12-05T05:23:54.563Z,100310.00
2018-12-05T05:25:59.166Z,100296.00
2018-12-05T05:28:03.442Z,100299.00
2018-12-05T05:30:08.245Z,100304.00
2018-12-05T05:32:12.407Z,100300.00
2018-12-05T05:34:16.506Z,100291.00
2018-12-05T05:36:20.814Z,100290.00
2018-12-05T05:38:24.867Z,100292.00
2018-12-05T05:40:28.981Z,100291.00
2018-12-05T05:42:33.101Z,100285.00
2018-12-05T05:44:37.428Z,100286.00
2018-12-05T05:46:41.598Z,100280.00
2018-12-05T05:48:45.673Z,100281.00
2018-12-05T05:50:49.790Z,100282.00
2018-12-05T05:52:53.814Z,100269.00
2018-12-05T05:54:57.845Z,100265.00
2018-12-05T05:57:01.846Z,100276.00
2018-12-05T05:59:05.998Z,100272.00
2018-12-05T06:01:10.302Z,100274.00
2018-12-05T06:03:14.939Z,100267.00
2018-12-05T06:05:19.115Z,100279.00
2018-12-05T06:07:23.170Z,100273.00
2018-12-05T06:09:27.181Z,100282.00
2018-12-05T06:11:31.234Z,100275.00
2018-12-05T06:13:35.316Z,100288.00
2018-12-05T06:15:39.470Z,100297.00
2018-12-05T06:17:43.592Z,100294.00
2018-12-05T06:19:47.651Z,100291.00
2018-12-05T06:21:51.668Z,100287.00
2018-12-05T06:23:55.677Z,100294.00
2018-12-05T06:25:59.790Z,100288.00
2018-12-05T06:28:03.827Z,100303.00
2018-12-05T06:30:08.564Z,100314.00
2018-12-05T06:32:12.640Z,100309.00
2018-12-05T06:34:16.624Z,100316.00
2018-12-05T06:36:20.634Z,100319.00
2018-12-05T06:38:24.630Z,100314.00
2018-12-05T06:40:28.809Z,100305.00
2018-12-05T06:42:32.850Z,100305.00
2018-12-05T06:44:36.876Z,100299.00
2018-12-05T06:46:40.987Z,100301.00
2018-12-05T06:48:45.138Z,100299.00
2018-12-05T06:50:49.270Z,100299.00
2018-12-05T06:52:53.293Z,100300.00
2018-12-05T06:54:57.601Z,100299.00
2018-12-05T06:57:01.647Z,100295.00
2018-12-05T06:59:05.719Z,100299.00
2018-12-05T07:01:09.914Z,100290.00
2018-12-05T07:03:15.096Z,100282.00
2018-12-05T07:05:19.181Z,100288.00
2018-12-05T07:07:23.181Z,100289.00
2018-12-05T07:09:27.328Z,100294.00
2018-12-05T07:11:31.385Z,100285.00
2018-12-05T07:13:35.498Z,100290.00
2018-12-05T07:15:39.645Z,100286.00
2018-12-05T07:17:43.759Z,100298.00
2018-12-05T07:19:47.983Z,100300.00
2018-12-05T07:21:52.068Z,100296.00
2018-12-05T07:23:56.181Z,100297.00
2018-12-05T07:26:00.411Z,100307.00
2018-12-05T07:28:04.730Z,100300.00
2018-12-05T07:30:09.054Z,100304.00
2018-12-05T07:32:13.098Z,100294.00
2018-12-05T07:34:17.213Z,100299.00
2018-12-05T07:36:21.203Z,100296.00
2018-12-05T07:38:25.243Z,100292.00
2018-12-05T07:40:29.247Z,100288.00
2018-12-05T07:42:33.323Z,100290.00
2018-12-05T07:44:37.314Z,100290.00
2018-12-05T07:46:41.336Z,100282.00
2018-12-05T07:48:45.413Z,100287.00
2018-12-05T07:50:49.447Z,100288.00
2018-12-05T07:52:53.528Z,100296.00
2018-12-05T07:54:57.536Z,100279.00
2018-12-05T07:57:01.662Z,100282.00
2018-12-05T07:59:05.906Z,100264.00
2018-12-05T08:01:10.050Z,100284.00
2018-12-05T08:03:14.084Z,100271.00
2018-12-05T08:05:18.280Z,100267.00
2018-12-05T08:07:22.363Z,100269.00
2018-12-05T08:09:26.407Z,100253.00
2018-12-05T08:11:30.418Z,100256.00
2018-12-05T08:13:34.430Z,100256.00
2018-12-05T08:15:38.806Z,100260.00
2018-12-05T08:17:42.876Z,100260.00
2018-12-05T08:19:48.280Z,100259.00
2018-12-05T08:21:52.677Z,100256.00
2018-12-05T08:23:56.710Z,100253.00
2018-12-05T08:26:00.878Z,100261.00
2018-12-05T08:28:05.155Z,100259.00
2018-12-05T08:30:09.848Z,100240.00
2018-12-05T08:32:13.934Z,100239.00
2018-12-05T08:34:17.948Z,100242.00
2018-12-05T08:36:21.960Z,100239.00
2018-12-05T08:38:26.149Z,100240.00
2018-12-05T08:40:30.461Z,100242.00
2018-12-05T08:42:35.774Z,100238.00
2018-12-05T08:44:39.906Z,100236.00
2018-12-05T08:46:44.146Z,100240.00
2018-12-05T08:48:48.282Z,100237.00
2018-12-05T08:50:52.388Z,100236.00
2018-12-05T08:52:56.781Z,100239.00
2018-12-05T08:55:00.993Z,100239.00
2018-12-05T08:57:05.282Z,100233.00
2018-12-05T08:59:09.468Z,100232.00
2018-12-05T09:01:13.598Z,100239.00
2018-12-05T09:03:17.691Z,100235.00
2018-12-05T09:05:21.742Z,100234.00
2018-12-05T09:07:25.789Z,100230.00
2018-12-05T09:09:29.856Z,100237.00
2018-12-05T09:11:33.985Z,100232.00
2018-12-05T09:13:38.017Z,100226.00
2018-12-05T09:15:42.095Z,100217.00
2018-12-05T09:17:46.135Z,100223.00
2018-12-05T09:19:50.113Z,100221.00
2018-12-05T09:21:54.161Z,100219.00
2018-12-05T09:23:58.306Z,100213.00
2018-12-05T09:26:02.371Z,100215.00
2018-12-05T09:28:06.458Z,100212.00
2018-12-05T09:30:10.678Z,100214.00
2018-12-05T09:32:14.717Z,100212.00
2018-12-05T09:34:18.831Z,100225.00
2018-12-05T09:36:25.144Z,100203.00
2018-12-05T09:38:29.161Z,100208.00
2018-12-05T09:40:33.222Z,100211.00
2018-12-05T09:42:37.299Z,100193.00
2018-12-05T09:44:41.385Z,100191.00
2018-12-05T09:46:45.431Z,100186.00
2018-12-05T09:48:49.515Z,100191.00
2018-12-05T09:50:53.545Z,100185.00
2018-12-05T09:52:57.561Z,100190.00
2018-12-05T09:55:01.676Z,100185.00
2018-12-05T09:57:06.039Z,100182.00
2018-12-05T09:59:10.384Z,100186.00
2018-12-05T10:01:14.412Z,100178.00
2018-12-05T10:03:18.473Z,100176.00
2018-12-05T10:05:22.551Z,100161.00
2018-12-05T10:07:26.562Z,100161.00
2018-12-05T10:09:30.806Z,100164.00
2018-12-05T10:11:34.818Z,100162.00
2018-12-05T10:13:38.912Z,100149.00
2018-12-05T10:15:43.002Z,100138.00
2018-12-05T10:17:47.105Z,100132.00
2018-12-05T10:19:51.203Z,100132.00
2018-12-05T10:21:55.298Z,100147.00
2018-12-05T10:23:59.349Z,100144.00
2018-12-05T10:26:03.501Z,100140.00
2018-12-05T10:28:07.521Z,100141.00
2018-12-05T10:30:11.681Z,100134.00
2018-12-05T10:32:16.649Z,100127.00
2018-12-05T10:34:20.850Z,100123.00
2018-12-05T10:36:24.958Z,100118.00
2018-12-05T10:38:29.015Z,100127.00
2018-12-05T10:40:33.215Z,100125.00
2018-12-05T10:42:37.454Z,100125.00
2018-12-05T10:44:41.473Z,100136.00
2018-12-05T10:46:45.591Z,100133.00
2018-12-05T10:48:49.604Z,100134.00
2018-12-05T10:50:53.777Z,100131.00
2018-12-05T10:52:57.890Z,100129.00
2018-12-05T10:55:01.894Z,100129.00
2018-12-05T10:57:05.942Z,100123.00
2018-12-05T10:59:10.025Z,100120.00
2018-12-05T11:01:19.410Z,100108.00
2018-12-05T11:03:28.735Z,100100.00
2018-12-05T11:05:38.117Z,100092.00
2018-12-05T11:07:47.482Z,100096.00
2018-12-05T11:09:56.791Z,100088.00
2018-12-05T11:12:05.910Z,100082.00
2018-12-05T11:14:15.265Z,100067.00
2018-12-05T11:16:24.750Z,100074.00
2018-12-05T11:18:34.309Z,100065.00
2018-12-05T11:20:43.692Z,100058.00
2018-12-05T11:22:52.984Z,100052.00
2018-12-05T11:25:09.002Z,100058.00
2018-12-05T11:27:13.255Z,100061.00
2018-12-05T11:29:17.389Z,100059.00
2018-12-05T11:31:21.518Z,100053.00
2018-12-05T11:33:25.603Z,100049.00
2018-12-05T11:35:29.795Z,100054.00
2018-12-05T11:37:33.883Z,100045.00
2018-12-05T11:39:38.105Z,100020.00
2018-12-05T11:41:42.450Z,100012.00
2018-12-05T11:43:46.744Z,100013.00
2018-12-05T11:45:50.874Z,100007.00
2018-12-05T11:47:54.953Z,100011.00
2018-12-05T11:49:59.034Z,100004.00
2018-12-05T11:52:03.141Z,100007.00
2018-12-05T11:54:07.427Z,100005.00
2018-12-05T11:56:11.570Z,100008.00
2018-12-05T11:58:15.722Z,100013.00
2018-12-05T12:00:19.893Z,100012.00
2018-12-05T12:02:23.947Z,100011.00
2018-12-05T12:04:28.110Z,100014.00
2018-12-05T12:06:32.202Z,100017.00
2018-12-05T12:08:36.309Z,100016.00
2018-12-05T12:10:41.448Z,100015.00
2018-12-05T12:12:50.967Z,100009.00
2018-12-05T12:14:55.100Z,100000.00
2018-12-05T12:16:59.540Z,99998.00
2018-12-05T12:19:03.661Z,99995.00
2018-12-05T12:21:07.764Z,99981.00
2018-12-05T12:23:11.935Z,99981.00
2018-12-05T12:25:16.030Z,99975.00
2018-12-05T12:27:20.126Z,99985.00
2018-12-05T12:29:24.167Z,99976.00
2018-12-05T12:31:28.442Z,99971.00
2018-12-05T12:33:32.496Z,99973.00
2018-12-05T12:35:36.634Z,99972.00
2018-12-05T12:37:40.660Z,99970.00
2018-12-05T12:39:44.913Z,99970.00
2018-12-05T12:41:49.025Z,99965.00
2018-12-05T12:43:53.150Z,99959.00
2018-12-05T12:45:57.164Z,99958.00
2018-12-05T12:48:01.174Z,99953.00
2018-12-05T12:50:06.118Z,99952.00
2018-12-05T12:52:10.176Z,99939.00
2018-12-05T12:54:14.194Z,99943.00
2018-12-05T12:56:19.424Z,99933.00
2018-12-05T12:58:23.536Z,99942.00
2018-12-05T13:00:27.658Z,99942.00
2018-12-05T13:02:31.769Z,99933.00
2018-12-05T13:04:35.850Z,99934.00
2018-12-05T13:06:39.890Z,99926.00
2018-12-05T13:08:43.917Z,99918.00
2018-12-05T13:10:47.942Z,99921.00
2018-12-05T13:12:54.239Z,99917.00
2018-12-05T13:14:58.581Z,99908.00
2018-12-05T13:17:02.596Z,99909.00
2018-12-05T13:19:06.801Z,99910.00
2018-12-05T13:21:10.806Z,99910.00
2018-12-05T13:23:14.905Z,99909.00
2018-12-05T13:25:19.352Z,99904.00
2018-12-05T13:27:23.503Z,99897.00
2018-12-05T13:29:27.489Z,99900.00
2018-12-05T13:31:31.571Z,99895.00
2018-12-05T13:33:35.609Z,99895.00
2018-12-05T13:35:39.680Z,99894.00
2018-12-05T13:37:43.878Z,99891.00
2018-12-05T13:39:48.099Z,99881.00
2018-12-05T13:41:52.686Z,99880.00
2018-12-05T13:43:56.712Z,99871.00
2018-12-05T13:46:00.825Z,99876.00
2018-12-05T13:48:05.352Z,99870.00
2018-12-05T13:50:09.726Z,99878.00
2018-12-05T13:52:13.906Z,99876.00
2018-12-05T13:54:17.932Z,99876.00
2018-12-05T13:56:22.181Z,99877.00
2018-12-05T13:58:26.578Z,99874.00
2018-12-05T14:00:30.812Z,99877.00
2018-12-05T14:02:35.041Z,99872.00
2018-12-05T14:04:39.114Z,99865.00
2018-12-05T14:06:43.352Z,99867.00
2018-12-05T14:08:47.370Z,99860.00
2018-12-05T14:10:51.400Z,99858.00
2018-12-05T14:12:59.270Z,99852.00
2018-12-05T14:15:03.864Z,99848.00
2018-12-05T14:17:08.082Z,99846.00
2018-12-05T14:19:12.090Z,99842.00
2018-12-05T14:21:16.187Z,99831.00
2018-12-05T14:23:21.182Z,99825.00
2018-12-05T14:25:25.182Z,99829.00
2018-12-05T14:27:29.237Z,99824.00
2018-12-05T14:29:33.260Z,99830.00
2018-12-05T14:31:37.424Z,99824.00
2018-12-05T14:33:41.525Z,99825.00
2018-12-05T14:35:45.549Z,99818.00
2018-12-05T14:37:49.612Z,99807.00
2018-12-05T14:39:53.691Z,99800.00
2018-12-05T14:41:57.773Z,99810.00
2018-12-05T14:44:01.972Z,99802.00
2018-12-05T14:46:07.369Z,99807.00
2018-12-05T14:48:11.526Z,99807.00
2018-12-05T14:50:15.593Z,99801.00
2018-12-05T14:52:22.084Z,99805.00
2018-12-05T14:54:26.270Z,99800.00
2018-12-05T14:56:30.282Z,99799.00
2018-12-05T14:58:34.778Z,99803.00
2018-12-05T15:00:38.857Z,99802.00
2018-12-05T15:02:42.887Z,99792.00
2018-12-05T15:04:46.961Z,99789.00
2018-12-05T15:06:51.010Z,99784.00
2018-12-05T15:08:55.184Z,99786.00
2018-12-05T15:10:59.376Z,99784.00
2018-12-05T15:13:03.543Z,99784.00
2018-12-05T15:15:07.816Z,99783.00
2018-12-05T15:17:11.833Z,99780.00
2018-12-05T15:19:16.150Z,99770.00
2018-12-05T15:21:21.517Z,99779.00
2018-12-05T15:23:25.718Z,99775.00
2018-12-05T15:25:29.750Z,99777.00
2018-12-05T15:27:33.929Z,99767.00
2018-12-05T15:29:37.958Z,99767.00
2018-12-05T15:31:41.994Z,99769.00
2018-12-05T15:33:49.085Z,99771.00
2018-12-05T15:35:53.121Z,99755.00
2018-12-05T15:37:57.288Z,99746.00
2018-12-05T15:40:01.322Z,99739.00
2018-12-05T15:42:05.438Z,99747.00
2018-12-05T15:44:09.486Z,99748.00
2018-12-05T15:46:13.706Z,99739.00
2018-12-05T15:48:17.790Z,99739.00
2018-12-05T15:50:21.897Z,99737.00
2018-12-05T15:52:25.985Z,99733.00
2018-12-05T15:54:30.032Z,99725.00
2018-12-05T15:56:34.186Z,99721.00
2018-12-05T15:58:38.244Z,99714.00
2018-12-05T16:00:42.371Z,99711.00
2018-12-05T16:02:46.406Z,99709.00
2018-12-05T16:04:50.453Z,99709.00
2018-12-05T16:06:54.561Z,99710.00
2018-12-05T16:08:58.689Z,99708.00
2018-12-05T16:11:02.721Z,99698.00
2018-12-05T16:13:06.764Z,99705.00
2018-12-05T16:15:11.002Z,99693.00
2018-12-05T16:17:15.058Z,99691.00
2018-12-05T16:19:19.201Z,99697.00
2018-12-05T16:21:23.318Z,99679.00
2018-12-05T16:23:27.425Z,99674.00
2018-12-05T16:25:31.537Z,99677.00
2018-12-05T16:27:35.662Z,99670.00
2018-12-05T16:29:39.890Z,99660.00
2018-12-05T16:31:44.728Z,99663.00
2018-12-05T16:33:48.884Z,99647.00
2018-12-05T16:35:53.030Z,99646.00
2018-12-05T16:37:57.158Z,99652.00
2018-12-05T16:40:01.234Z,99635.00
2018-12-05T16:42:05.414Z,99634.00
2018-12-05T16:44:12.828Z,99641.00
2018-12-05T16:46:15.522Z,99635.00
2018-12-05T16:48:19.562Z,99640.00
2018-12-05T16:50:23.626Z,99641.00
2018-12-05T16:52:27.634Z,99627.00
2018-12-05T16:54:32.040Z,99633.00
2018-12-05T16:56:36.323Z,99638.00
2018-12-05T16:58:40.449Z,99646.00
2018-12-05T17:00:44.617Z,99636.00
2018-12-05T17:02:48.735Z,99627.00
2018-12-05T17:04:52.874Z,99626.00
2018-12-05T17:06:56.948Z,99629.00
2018-12-05T17:09:01.559Z,99622.00
2018-12-05T17:11:05.942Z,99613.00
2018-12-05T17:15:30.884Z,99608.00
2018-12-05T17:17:35.017Z,99599.00
2018-12-05T17:19:39.113Z,99606.00
2018-12-05T17:21:43.202Z,99607.00
2018-12-05T17:23:47.361Z,99601.00
2018-12-05T17:25:51.524Z,99593.00
2018-12-05T17:27:55.690Z,99597.00
2018-12-05T17:29:59.779Z,99587.00
2018-12-05T17:32:03.795Z,99590.00
2018-12-05T17:34:07.948Z,99601.00
2018-12-05T17:36:12.014Z,99584.00
2018-12-05T17:38:16.030Z,99588.00
2018-12-05T17:40:20.200Z,99586.00
2018-12-05T17:42:24.263Z,99587.00
2018-12-05T17:44:28.386Z,99581.00
2018-12-05T17:46:32.633Z,99578.00
2018-12-05T17:48:36.681Z,99575.00
2018-12-05T17:50:40.708Z,99572.00
2018-12-05T17:52:44.835Z,99569.00
2018-12-05T17:54:49.005Z,99565.00
2018-12-05T17:56:53.045Z,99556.00
2018-12-05T17:58:57.147Z,99560.00
2018-12-05T18:01:01.441Z,99567.00
2018-12-05T18:03:05.462Z,99550.00
2018-12-05T18:05:09.834Z,99555.00
2018-12-05T18:07:13.970Z,99553.00
2018-12-05T18:09:18.065Z,99550.00
2018-12-05T18:11:22.165Z,99549.00
2018-12-05T18:13:26.302Z,99556.00
2018-12-05T18:15:30.636Z,99542.00
2018-12-05T18:17:35.165Z,99535.00
2018-12-05T18:19:39.415Z,99538.00
2018-12-05T18:21:43.581Z,99526.00
2018-12-05T18:23:47.898Z,99529.00
2018-12-05T18:25:52.131Z,99528.00
2018-12-05T18:27:56.132Z,99530.00
2018-12-05T18:30:00.594Z,99533.00
2018-12-05T18:32:04.730Z,99523.00
2018-12-05T18:34:08.896Z,99523.00
2018-12-05T18:36:12.981Z,99504.00
2018-12-05T18:38:17.077Z,99505.00
2018-12-05T18:40:21.867Z,99491.00
2018-12-05T18:42:25.952Z,99470.00
2018-12-05T18:44:30.092Z,99461.00
2018-12-05T18:46:34.116Z,99451.00
2018-12-05T18:48:43.603Z,99454.00
2018-12-05T18:50:47.843Z,99444.00
2018-12-05T18:52:52.032Z,99455.00
2018-12-05T18:54:56.041Z,99458.00
2018-12-05T18:57:00.114Z,99458.00
2018-12-05T18:59:04.335Z,99455.00
2018-12-05T19:01:08.361Z,99442.00
2018-12-05T19:03:12.492Z,99444.00
2018-12-05T19:05:16.692Z,99450.00
2018-12-05T19:07:21.820Z,99450.00
2018-12-05T19:09:26.913Z,99443.00
2018-12-05T19:11:31.454Z,99441.00
2018-12-05T19:13:39.705Z,99437.00
2018-12-05T19:15:43.730Z,99438.00
2018-12-05T19:17:47.857Z,99435.00
2018-12-05T19:19:51.962Z,99435.00
2018-12-05T19:21:55.976Z,99443.00
2018-12-05T19:24:00.001Z,99428.00
2018-12-05T19:26:04.216Z,99440.00
2018-12-05T19:28:08.335Z,99435.00
2018-12-05T19:30:12.636Z,99435.00
2018-12-05T19:32:16.659Z,99437.00
2018-12-05T19:34:20.761Z,99425.00
2018-12-05T19:36:24.901Z,99425.00
2018-12-05T19:38:28.928Z,99430.00
2018-12-05T19:40:33.065Z,99416.00
2018-12-05T19:42:37.227Z,99421.00
2018-12-05T19:44:41.255Z,99421.00
2018-12-05T19:46:45.341Z,99422.00
2018-12-05T19:48:49.379Z,99413.00
2018-12-05T19:50:53.425Z,99401.00
2018-12-05T19:52:57.534Z,99397.00
2018-12-05T19:55:01.585Z,99397.00
2018-12-05T19:57:05.719Z,99389.00
2018-12-05T19:59:09.812Z,99381.00
2018-12-05T20:01:13.984Z,99384.00
2018-12-05T20:03:18.101Z,99376.00
2018-12-05T20:05:22.617Z,99383.00
2018-12-05T20:07:27.309Z,99378.00
2018-12-05T20:09:31.364Z,99381.00
2018-12-05T20:11:35.492Z,99381.00
2018-12-05T20:13:39.546Z,99380.00
2018-12-05T20:15:43.662Z,99370.00
2018-12-05T20:17:47.775Z,99365.00
2018-12-05T20:19:52.202Z,99367.00
2018-12-05T20:21:56.429Z,99381.00
2018-12-05T20:24:00.462Z,99377.00
2018-12-05T20:26:04.686Z,99383.00
2018-12-05T20:28:08.820Z,99382.00
2018-12-05T20:30:13.127Z,99380.00
2018-12-05T20:32:17.438Z,99387.00
2018-12-05T20:34:21.479Z,99394.00
2018-12-05T20:36:25.566Z,99397.00
2018-12-05T20:38:29.717Z,99400.00
2018-12-05T20:40:33.993Z,99394.00
2018-12-05T20:42:38.052Z,99389.00
2018-12-05T20:44:43.042Z,99388.00
2018-12-05T20:46:47.144Z,99381.00
2018-12-05T20:48:51.257Z,99380.00
2018-12-05T20:50:55.378Z,99373.00
2018-12-05T20:52:59.711Z,99381.00
2018-12-05T20:55:03.883Z,99381.00
2018-12-05T20:57:08.030Z,99397.00
2018-12-05T20:59:12.036Z,99372.00
2018-12-05T21:01:16.228Z,99375.00
2018-12-05T21:03:20.402Z,99381.00
2018-12-05T21:05:24.583Z,99366.00
2018-12-05T21:07:28.765Z,99364.00
2018-12-05T21:09:32.873Z,99361.00
2018-12-05T21:11:37.313Z,99354.00
2018-12-05T21:13:43.379Z,99354.00
2018-12-05T21:15:47.620Z,99350.00
2018-12-05T21:17:51.709Z,99354.00
2018-12-05T21:19:55.885Z,99365.00
2018-12-05T21:21:59.997Z,99352.00
2018-12-05T21:24:04.408Z,99356.00
2018-12-05T21:26:09.721Z,99364.00
2018-12-05T21:28:13.852Z,99354.00
2018-12-05T21:30:18.111Z,99347.00
2018-12-05T21:32:23.589Z,99343.00
2018-12-05T21:34:27.833Z,99350.00
2018-12-05T21:36:31.996Z,99346.00
2018-12-05T21:38:36.097Z,99339.00
2018-12-05T21:40:40.295Z,99342.00
2018-12-05T21:42:44.325Z,99338.00
2018-12-05T21:44:48.354Z,99352.00
2018-12-05T21:46:52.400Z,99344.00
2018-12-05T21:48:56.443Z,99341.00
2018-12-05T21:51:00.646Z,99345.00
2018-12-05T21:53:05.700Z,99344.00
2018-12-05T21:55:11.491Z,99344.00
2018-12-05T21:57:15.577Z,99340.00
2018-12-05T21:59:19.590Z,99346.00
2018-12-05T22:01:23.626Z,99338.00
2018-12-05T22:03:27.713Z,99335.00
2018-12-05T22:05:32.141Z,99332.00
2018-12-05T22:07:36.272Z,99344.00
2018-12-05T22:09:40.290Z,99322.00
2018-12-05T22:11:44.423Z,99335.00
2018-12-05T22:13:48.471Z,99328.00
2018-12-05T22:15:52.521Z,99316.00
2018-12-05T22:17:56.548Z,99327.00
2018-12-05T22:20:00.708Z,99331.00
2018-12-05T22:22:04.917Z,99332.00
2018-12-05T22:24:08.928Z,99326.00
2018-12-05T22:26:12.950Z,99321.00
2018-12-05T22:28:16.967Z,99318.00
2018-12-05T22:30:21.058Z,99316.00
2018-12-05T22:32:25.182Z,99311.00
2018-12-05T22:34:29.204Z,99311.00
2018-12-05T22:36:33.323Z,99306.00
2018-12-05T22:38:37.340Z,99314.00
2018-12-05T22:40:41.365Z,99311.00
2018-12-05T22:42:45.454Z,99316.00
2018-12-05T22:44:49.437Z,99306.00
2018-12-05T22:46:53.466Z,99298.00
2018-12-05T22:48:57.554Z,99298.00
2018-12-05T22:51:01.609Z,99292.00
2018-12-05T22:53:05.735Z,99292.00
2018-12-05T22:55:09.972Z,99288.00
2018-12-05T22:57:16.286Z,99289.00
2018-12-05T22:59:20.310Z,99289.00
2018-12-05T23:01:24.411Z,99287.00
2018-12-05T23:03:28.442Z,99279.00
2018-12-05T23:05:32.456Z,99286.00
2018-12-05T23:07:36.502Z,99291.00
2018-12-05T23:09:40.607Z,99282.00
2018-12-05T23:11:44.869Z,99276.00
2018-12-05T23:13:48.936Z,99275.00
2018-12-05T23:15:53.027Z,99270.00
2018-12-05T23:17:57.160Z,99279.00
2018-12-05T23:20:01.209Z,99275.00
2018-12-05T23:22:05.262Z,99272.00
2018-12-05T23:24:09.311Z,99266.00
2018-12-05T23:26:13.419Z,99255.00
2018-12-05T23:28:17.608Z,99262.00
2018-12-05T23:30:21.705Z,99259.00
2018-12-05T23:32:25.708Z,99250.00
2018-12-05T23:34:29.782Z,99254.00
2018-12-05T23:36:33.919Z,99243.00
2018-12-05T23:38:38.053Z,99249.00
2018-12-05T23:40:42.058Z,99244.00
2018-12-05T23:42:47.901Z,99249.00
2018-12-05T23:44:51.936Z,99241.00
2018-12-05T23:46:55.930Z,99233.00
2018-12-05T23:49:00.173Z,99233.00
2018-12-05T23:51:04.441Z,99231.00
2018-12-05T23:53:08.456Z,99230.00
2018-12-05T23:55:12.503Z,99217.00
2018-12-05T23:57:16.569Z,99224.00
2018-12-05T23:59:20.601Z,99217.00
